Time;durP1;ratioP1;P1;durP2;ratioP2;P2;SDS_P1;SDS_P2;PMS_P1;PMS_P2;Temp;Humidity;BMP_temperature;BMP_pressure;BME280_temperature;BME280_humidity;BME280_pressure;Samples;Min_cycle;Max_cycle;Signal;HPM_P1;HPM_P2
2023/08/15 00:01:11;;;;;;;8.18;4.25;;;;;;;21.93;88.42;98496.84;5080910;28;20142;-82
2023/08/15 00:03:56;;;;;;;6.28;3.88;;;;;;;21.79;88.08;98486.81;5083100;28;20039;-82
2023/08/15 00:06:40;;;;;;;7.03;4.15;;;;;;;21.86;88.00;98507.84;5083464;28;20076;-81
2023/08/15 00:09:24;;;;;;;7.78;4.15;;;;;;;21.72;88.30;98502.38;5082759;28;20501;-81
2023/08/15 00:12:08;;;;;;;6.07;4.30;;;;;;;;;;5078314;28;20074;-81
2023/08/15 00:14:52;;;;;;;8.05;4.28;;;;;;;21.70;88.00;98507.22;5086121;28;20066;-81
2023/08/15 00:17:36;;;;;;;7.75;4.30;;;;;;;21.72;88.13;98506.94;5079222;28;20043;-81
2023/08/15 00:20:20;;;;;;;9.15;5.18;;;;;;;21.61;88.15;98508.84;5078463;28;20043;-81
2023/08/15 00:23:04;;;;;;;11.65;4.95;;;;;;;21.88;87.86;98510.25;5081230;28;20039;-79
2023/08/15 00:25:48;;;;;;;6.43;5.00;;;;;;;21.86;87.56;98504.41;5083676;28;20043;-81
2023/08/15 00:28:32;;;;;;;6.63;4.80;;;;;;;21.72;87.62;98504.28;5084095;28;20051;-80
2023/08/15 00:31:16;;;;;;;10.15;4.72;;;;;;;21.88;87.88;98495.00;5081077;28;20162;-80
2023/08/15 00:34:00;;;;;;;8.90;5.55;;;;;;;21.54;88.21;98493.19;5080151;28;20054;-80
2023/08/15 00:36:44;;;;;;;6.78;5.13;;;;;;;21.25;88.94;98492.06;5082550;28;20048;-80
2023/08/15 00:39:28;;;;;;;8.20;5.20;;;;;;;21.40;88.87;98498.34;5083903;28;20071;-81
2023/08/15 00:42:12;;;;;;;12.55;5.93;;;;;;;21.42;88.84;98496.22;5084539;28;20043;-80
2023/08/15 00:44:56;;;;;;;6.45;5.45;;;;;;;21.39;88.83;98489.56;5081113;28;20075;-80
2023/08/15 00:47:41;;;;;;;8.35;5.22;;;;;;;21.29;89.21;98494.97;5078350;28;20047;-81
2023/08/15 00:50:25;;;;;;;6.32;5.13;;;;;;;21.50;88.37;98502.81;5084541;28;20043;-81
2023/08/15 00:53:11;;;;;;;9.32;5.70;;;;;;;21.20;89.22;98505.44;5083315;28;20047;-81
2023/08/15 00:55:57;;;;;;;5.68;4.63;;;;;;;21.46;88.55;98510.59;5085645;28;20146;-81
2023/08/15 00:58:42;;;;;;;9.25;5.65;;;;;;;21.22;89.24;98505.97;5073335;28;20051;-81
2023/08/15 01:01:26;;;;;;;7.38;5.18;;;;;;;21.43;88.97;98511.16;5076319;28;20094;-81
2023/08/15 01:04:10;;;;;;;10.05;5.75;;;;;;;21.43;89.01;98513.84;5078980;28;20039;-82
2023/08/15 01:06:54;;;;;;;8.70;5.15;;;;;;;21.62;88.49;98515.81;5075511;28;20121;-80
2023/08/15 01:09:38;;;;;;;9.60;5.70;;;;;;;21.33;89.05;98524.56;5078260;28;20043;-80
2023/08/15 01:12:35;;;;;;;7.72;4.80;;;;;;;21.43;89.22;98513.84;5079501;28;20512;-80
2023/08/15 01:15:26;;;;;;;9.85;5.82;;;;;;;21.22;89.82;98526.53;5083082;28;20044;-81
2023/08/15 01:18:20;;;;;;;11.05;5.57;;;;;;;21.59;88.83;98527.84;5083798;28;20047;-81
2023/08/15 01:21:06;;;;;;;7.32;5.32;;;;;;;21.35;89.73;98530.44;5079143;28;20108;-81
2023/08/15 01:23:52;;;;;;;6.82;5.25;;;;;;;21.48;89.39;98521.78;5083627;28;20043;-80
2023/08/15 01:26:36;;;;;;;10.70;5.47;;;;;;;;;;5078513;28;20046;-81
2023/08/15 01:29:20;;;;;;;7.07;5.10;;;;;;;21.54;89.28;98534.03;5079901;28;20038;-81
2023/08/15 01:32:10;;;;;;;7.78;5.15;;;;;;;21.66;88.39;98538.25;5079494;28;20079;-81
2023/08/15 01:35:21;;;;;;;8.35;4.90;;;;;;;21.76;88.00;98538.13;5080575;28;20043;-82
2023/08/15 01:38:15;;;;;;;9.13;5.45;;;;;;;21.75;88.06;98538.44;5078024;28;20101;-84
2023/08/15 01:41:02;;;;;;;9.48;6.05;;;;;;;21.23;89.50;98542.28;5086593;28;20105;-84
2023/08/15 01:43:47;;;;;;;7.45;5.32;;;;;;;21.72;88.37;98539.00;5077905;28;20043;-83
2023/08/15 01:46:32;;;;;;;8.38;5.47;;;;;;;21.54;88.57;98544.69;5072781;28;20047;-84
2023/08/15 01:49:16;;;;;;;6.80;5.75;;;;;;;21.70;88.16;98552.63;5072872;28;20560;-84
2023/08/15 01:51:59;;;;;;;;;;;;;;;21.71;88.08;98558.75;5075842;28;20047;-82
2023/08/15 01:54:43;;;;;;;7.78;6.55;;;;;;;21.58;88.00;98557.50;5081840;28;19923;-83
2023/08/15 01:57:27;;;;;;;11.38;6.68;;;;;;;21.68;87.91;98560.13;5080084;28;20048;-83
2023/08/15 02:00:12;;;;;;;8.93;6.57;;;;;;;21.41;88.63;98561.34;5076118;28;20406;-82
2023/08/15 02:02:56;;;;;;;11.23;6.75;;;;;;;21.67;87.96;98558.53;5082029;28;20039;-81
2023/08/15 02:05:40;;;;;;;9.35;6.85;;;;;;;21.46;88.54;98556.00;5079385;28;20129;-82
2023/08/15 02:08:24;;;;;;;10.07;7.35;;;;;;;21.63;87.87;98552.13;5075493;28;20058;-83
2023/08/15 02:11:09;;;;;;;12.43;7.80;;;;;;;21.44;88.70;98552.00;5078848;28;20510;-82
2023/08/15 02:13:54;;;;;;;11.52;7.47;;;;;;;21.47;89.28;98560.25;5080218;28;20089;-83
2023/08/15 02:16:37;;;;;;;10.63;7.15;;;;;;;21.69;88.24;98546.47;5077705;28;20108;-83
2023/08/15 02:19:21;;;;;;;10.38;6.95;;;;;;;21.61;88.18;98556.94;5080233;28;20085;-82
2023/08/15 02:22:05;;;;;;;11.00;7.22;;;;;;;21.48;88.62;98556.50;5082011;28;20086;-82
2023/08/15 02:24:49;;;;;;;14.68;7.82;;;;;;;21.47;88.66;98544.22;5083560;28;20036;-81
2023/08/15 02:27:33;;;;;;;10.27;6.82;;;;;;;21.34;88.88;98545.66;5083677;28;20039;-81
2023/08/15 02:30:18;;;;;;;9.68;6.97;;;;;;;21.34;90.05;98556.34;5085767;28;20562;-80
2023/08/15 02:33:03;;;;;;;10.45;7.32;;;;;;;21.37;89.44;98561.13;5086713;28;20051;-80
2023/08/15 02:35:49;;;;;;;13.63;7.50;;;;;;;21.33;89.88;98548.59;5075217;28;20059;-79
2023/08/15 02:38:34;;;;;;;11.32;7.68;;;;;;;21.28;89.67;98543.31;5083762;28;20039;-80
2023/08/15 02:41:19;;;;;;;9.73;7.65;;;;;;;21.36;89.24;98556.06;5080202;28;20093;-80
2023/08/15 02:44:04;;;;;;;15.63;8.25;;;;;;;21.23;89.83;98560.13;5084315;28;20104;-80
2023/08/15 02:46:48;;;;;;;11.40;8.15;;;;;;;21.24;90.04;98551.88;5089179;28;20082;-80
2023/08/15 02:49:32;;;;;;;;;;;;;;;21.20;90.25;98558.03;5080296;28;20526;-80
2023/08/15 02:52:16;;;;;;;10.40;9.05;;;;;;;20.87;91.19;98558.47;5090057;28;19919;-80
2023/08/15 02:55:00;;;;;;;11.60;8.80;;;;;;;21.12;90.77;98552.19;5080670;28;20038;-81
2023/08/15 02:57:44;;;;;;;13.30;9.40;;;;;;;21.22;90.56;98556.69;5081444;28;20111;-80
2023/08/15 03:00:28;;;;;;;12.05;9.10;;;;;;;21.03;90.75;98553.03;5086964;28;20093;-81
2023/08/15 03:03:12;;;;;;;14.88;9.90;;;;;;;20.94;91.23;98542.97;5080980;28;20082;-80
2023/08/15 03:06:03;;;;;;;10.73;9.60;;;;;;;21.05;91.97;98542.91;5086288;28;20562;-81
2023/08/15 03:08:47;;;;;;;13.15;11.20;;;;;;;20.79;92.91;98545.66;5080810;28;20422;-81
2023/08/15 03:11:31;;;;;;;15.98;11.27;;;;;;;20.73;93.60;98547.56;5079830;28;20509;-80
2023/08/15 03:14:15;;;;;;;14.13;11.45;;;;;;;20.70;93.90;98558.78;5085197;28;20039;-82
2023/08/15 03:17:01;;;;;;;12.82;10.63;;;;;;;20.94;93.76;98550.97;5081600;28;20090;-81
2023/08/15 03:19:46;;;;;;;13.02;11.80;;;;;;;20.75;94.82;98560.63;5085529;28;20046;-79
2023/08/15 03:22:30;;;;;;;14.35;12.15;;;;;;;20.53;95.70;98564.44;5082213;28;20122;-81
2023/08/15 03:25:14;;;;;;;14.45;12.45;;;;;;;20.61;96.13;98561.22;5081362;28;20046;-83
2023/08/15 03:27:58;;;;;;;18.73;12.00;;;;;;;20.78;95.02;98563.56;5081710;28;20058;-83
2023/08/15 03:30:41;;;;;;;14.18;12.07;;;;;;;20.96;95.49;98564.03;5083845;28;20043;-84
2023/08/15 03:33:25;;;;;;;12.75;11.15;;;;;;;20.76;95.42;98565.72;5081883;28;20063;-80
2023/08/15 03:36:09;;;;;;;13.63;11.68;;;;;;;20.81;95.44;98564.88;5083910;28;20076;-81
2023/08/15 03:38:53;;;;;;;15.70;10.75;;;;;;;20.97;95.09;98562.97;5084740;28;20071;-82
2023/08/15 03:41:38;;;;;;;15.80;11.18;;;;;;;20.98;94.97;98567.22;5084072;28;20043;-79
2023/08/15 03:44:21;;;;;;;12.05;10.23;;;;;;;20.97;94.90;98563.75;5083921;28;20048;-81
2023/08/15 03:47:05;;;;;;;15.60;11.73;;;;;;;20.85;95.25;98571.31;5078852;28;20039;-79
2023/08/15 03:49:49;;;;;;;13.27;11.45;;;;;;;20.93;95.37;98560.03;5082775;28;20192;-82
2023/08/15 03:52:35;;;;;;;13.23;10.48;;;;;;;21.07;94.27;98578.91;5087125;28;20034;-82
2023/08/15 03:55:19;;;;;;;15.77;10.77;;;;;;;20.65;96.20;98569.47;5088095;28;20093;-81
2023/08/15 03:58:03;;;;;;;14.80;11.32;;;;;;;20.62;96.53;98570.81;5080283;28;20132;-80
2023/08/15 04:00:48;;;;;;;13.10;10.25;;;;;;;20.58;96.48;98568.97;5085606;28;20050;-81
2023/08/15 04:03:32;;;;;;;13.88;10.50;;;;;;;20.87;95.53;98579.81;5080372;28;20106;-83
2023/08/15 04:06:16;;;;;;;11.23;9.85;;;;;;;20.91;95.69;98572.88;5082253;28;20106;-82
2023/08/15 04:09:00;;;;;;;11.95;10.75;;;;;;;20.77;95.58;98575.31;5082461;28;20568;-82
2023/08/15 04:11:45;;;;;;;12.23;10.68;;;;;;;20.64;96.38;98573.22;5081607;28;20413;-81
2023/08/15 04:14:29;;;;;;;13.20;10.70;;;;;;;20.55;96.56;98575.63;5079339;28;20051;-80
2023/08/15 04:17:13;;;;;;;14.60;10.93;;;;;;;20.73;95.62;98573.44;5083392;28;20067;-81
2023/08/15 04:19:57;;;;;;;13.90;11.30;;;;;;;20.87;95.39;98582.50;5085164;28;20764;-81
2023/08/15 04:22:41;;;;;;;19.27;11.88;;;;;;;20.87;95.63;98584.34;5081290;28;20078;-81
2023/08/15 04:25:26;;;;;;;15.43;10.20;;;;;;;20.66;96.50;98585.22;5076524;28;20105;-81
2023/08/15 04:28:10;;;;;;;12.63;9.45;;;;;;;20.68;96.28;98575.06;5080828;28;20500;-81
2023/08/15 04:30:54;;;;;;;15.07;11.05;;;;;;;20.53;97.35;98570.56;5075958;28;20082;-82
2023/08/15 04:33:37;;;;;;;13.25;9.82;;;;;;;20.14;98.44;98581.06;5084441;28;20120;-81
2023/08/15 04:36:21;;;;;;;11.98;10.02;;;;;;;20.74;96.83;98585.72;5080957;28;20455;-80
2023/08/15 04:39:06;;;;;;;17.67;11.90;;;;;;;20.47;97.71;98586.88;5078572;28;20131;-81
2023/08/15 04:41:50;;;;;;;16.10;11.38;;;;;;;20.48;97.59;98591.91;5081801;28;20166;-81
2023/08/15 04:44:34;;;;;;;13.98;10.30;;;;;;;20.72;96.88;98599.31;5074475;28;20036;-81
2023/08/15 04:47:19;;;;;;;13.02;9.43;;;;;;;20.69;96.77;98600.66;5078115;28;20051;-81
2023/08/15 04:50:03;;;;;;;13.60;10.05;;;;;;;20.60;97.07;98617.50;5087188;28;20098;-80
2023/08/15 04:52:48;;;;;;;10.85;8.45;;;;;;;20.61;96.35;98617.22;5083100;28;20162;-82
2023/08/15 04:55:32;;;;;;;12.45;8.05;;;;;;;20.71;96.07;98618.25;5081471;28;20042;-81
2023/08/15 04:58:15;;;;;;;10.18;7.28;;;;;;;20.36;96.96;98618.88;5079146;28;20038;-81
2023/08/15 05:01:00;;;;;;;13.07;7.28;;;;;;;20.48;96.46;98621.25;5077978;28;20097;-81
2023/08/15 05:03:44;;;;;;;12.27;7.55;;;;;;;20.81;94.82;98610.22;5076308;28;20106;-82
2023/08/15 05:06:28;;;;;;;7.00;5.88;;;;;;;20.88;94.11;98618.75;5083415;28;20106;-82
2023/08/15 05:09:11;;;;;;;8.27;5.90;;;;;;;21.04;92.93;98621.38;5079143;28;20567;-82
2023/08/15 05:11:56;;;;;;;11.10;5.57;;;;;;;21.17;92.22;98628.75;5075467;28;20093;-83
2023/08/15 05:14:40;;;;;;;9.80;6.10;;;;;;;21.04;92.53;98629.38;5079285;28;20132;-82
2023/08/15 05:17:24;;;;;;;6.80;5.22;;;;;;;21.18;91.52;98634.91;5078543;28;20043;-82
2023/08/15 05:20:12;;;;;;;5.38;4.88;;;;;;;21.35;91.12;98643.34;5080433;28;20355;-82
2023/08/15 05:22:56;;;;;;;4.90;4.40;;;;;;;21.49;90.27;98646.22;5083661;28;20104;-83
2023/08/15 05:25:41;;;;;;;6.15;5.30;;;;;;;21.43;90.32;98644.66;5078842;28;20051;-83
2023/08/15 05:28:25;;;;;;;7.32;5.22;;;;;;;21.44;90.36;98646.25;5080185;28;20129;-82
2023/08/15 05:31:10;;;;;;;6.30;4.90;;;;;;;21.29;90.95;98652.44;5080346;28;20654;-83
2023/08/15 05:33:53;;;;;;;8.48;5.03;;;;;;;21.48;90.34;98654.47;5079645;28;20261;-82
2023/08/15 05:36:37;;;;;;;6.38;4.80;;;;;;;21.19;91.09;98663.19;5083087;28;20047;-81
2023/08/15 05:39:21;;;;;;;7.00;4.88;;;;;;;21.38;91.73;98669.50;5079134;28;20394;-81
2023/08/15 05:42:06;;;;;;;5.57;4.43;;;;;;;21.58;91.35;98666.97;5083664;28;20047;-81
2023/08/15 05:44:50;;;;;;;4.60;4.10;;;;;;;21.60;91.41;98673.66;5085371;28;20047;-82
2023/08/15 05:47:35;;;;;;;5.95;4.38;;;;;;;21.80;91.18;98678.06;5076222;28;20051;-82
2023/08/15 05:50:19;;;;;;;5.28;4.13;;;;;;;21.75;91.15;98677.34;5081774;28;20043;-81
2023/08/15 05:53:03;;;;;;;4.40;3.95;;;;;;;21.95;90.79;98689.75;5078065;28;20548;-82
2023/08/15 05:55:47;;;;;;;6.53;3.88;;;;;;;22.06;89.97;98695.81;5078993;28;20094;-82
2023/08/15 05:58:31;;;;;;;8.90;4.30;;;;;;;22.06;90.19;98699.28;5082243;28;20097;-82
2023/08/15 06:01:15;;;;;;;5.22;4.28;;;;;;;22.09;89.96;98704.06;5076868;28;20071;-82
2023/08/15 06:04:00;;;;;;;4.32;3.70;;;;;;;22.06;90.02;98693.94;5075575;28;20109;-82
2023/08/15 06:06:45;;;;;;;8.40;4.85;;;;;;;22.07;90.16;98710.75;5078349;28;20163;-82
2023/08/15 06:09:29;;;;;;;6.82;4.57;;;;;;;22.20;89.78;98717.34;5079517;28;20058;-82
2023/08/15 06:12:13;;;;;;;6.82;4.82;;;;;;;22.35;89.21;98716.44;5079057;28;20098;-82
2023/08/15 06:14:57;;;;;;;7.10;4.80;;;;;;;22.39;89.34;98723.59;5080418;28;20090;-81
2023/08/15 06:17:41;;;;;;;9.85;4.85;;;;;;;22.23;89.77;98724.81;5076193;28;20158;-82
2023/08/15 06:20:26;;;;;;;10.48;5.90;;;;;;;22.32;89.50;98723.13;5075540;28;20382;-84
2023/08/15 06:23:09;;;;;;;6.68;4.43;;;;;;;22.61;88.99;98735.75;5083154;28;20456;-85
2023/08/15 06:25:53;;;;;;;6.07;5.38;;;;;;;22.32;89.53;98731.16;5079167;28;20051;-82
2023/08/15 06:28:37;;;;;;;10.50;5.50;;;;;;;22.13;90.24;98746.28;5083553;28;20696;-81
2023/08/15 06:31:21;;;;;;;6.68;5.38;;;;;;;22.59;89.35;98748.59;5082493;28;20054;-82
2023/08/15 06:34:05;;;;;;;6.30;5.30;;;;;;;22.70;89.65;98749.31;5087356;28;20070;-81
2023/08/15 06:36:49;;;;;;;7.82;5.70;;;;;;;22.80;89.22;98757.25;5074231;28;20036;-80
2023/08/15 06:39:33;;;;;;;7.22;5.47;;;;;;;23.22;88.32;98760.28;5073027;28;20048;-81
2023/08/15 06:42:17;;;;;;;7.28;5.50;;;;;;;23.12;88.25;98763.06;5082775;28;20397;-82
2023/08/15 06:45:07;;;;;;;8.27;5.22;;;;;;;23.37;87.84;98766.56;5084791;28;20436;-81
2023/08/15 06:47:51;;;;;;;9.73;4.93;;;;;;;23.27;87.59;98778.19;5079716;28;20039;-81
2023/08/15 06:50:35;;;;;;;7.22;5.85;;;;;;;23.05;87.61;98770.66;5079810;28;20038;-81
2023/08/15 06:53:19;;;;;;;7.93;5.03;;;;;;;23.46;87.11;98780.13;5086513;28;20497;-81
2023/08/15 06:56:03;;;;;;;9.65;5.63;;;;;;;23.36;86.96;98770.31;5081379;28;20090;-82
2023/08/15 06:58:47;;;;;;;6.85;5.30;;;;;;;22.94;87.32;98776.09;5082312;28;20043;-83
2023/08/15 07:01:31;;;;;;;7.95;5.03;;;;;;;23.20;86.76;98773.16;5078606;28;20031;-82
2023/08/15 07:04:16;;;;;;;9.93;5.80;;;;;;;23.82;84.60;98777.78;5081498;28;20119;-81
2023/08/15 07:07:00;;;;;;;7.93;5.30;;;;;;;23.93;84.28;98780.31;5081946;28;20085;-82
2023/08/15 07:09:46;;;;;;;7.88;5.07;;;;;;;23.52;83.99;98798.53;5083050;28;20050;-82
2023/08/15 07:12:30;;;;;;;6.00;4.78;;;;;;;23.58;84.48;98801.94;5080383;28;20035;-82
2023/08/15 07:15:14;;;;;;;7.60;5.13;;;;;;;23.95;84.06;98807.63;5078340;28;20093;-82
2023/08/15 07:17:59;;;;;;;7.05;5.32;;;;;;;23.80;83.94;98804.09;5078975;28;20039;-82
2023/08/15 07:20:44;;;;;;;9.07;5.40;;;;;;;24.12;83.35;98801.81;5081180;28;20046;-81
2023/08/15 07:23:30;;;;;;;11.55;6.20;;;;;;;23.82;83.59;98801.91;5083304;28;20085;-83
2023/08/15 07:26:14;;;;;;;10.25;6.45;;;;;;;23.66;83.15;98811.22;5085408;28;20563;-81
2023/08/15 07:28:58;;;;;;;8.27;6.43;;;;;;;23.73;83.15;98821.59;5077004;28;20044;-83
2023/08/15 07:31:43;;;;;;;10.13;5.90;;;;;;;24.28;82.02;98821.13;5082497;28;20540;-84
2023/08/15 07:34:27;;;;;;;6.30;5.70;;;;;;;24.07;82.63;98832.16;5073114;28;20035;-80
2023/08/15 07:37:11;;;;;;;7.60;5.15;;;;;;;23.91;82.38;98841.47;5082070;28;20046;-81
2023/08/15 07:39:57;;;;;;;11.30;5.20;;;;;;;24.32;81.08;98840.91;5082319;28;20035;-79
2023/08/15 07:42:43;;;;;;;6.28;5.25;;;;;;;24.42;81.04;98841.88;5083000;28;20046;-78
2023/08/15 07:45:27;;;;;;;6.88;5.82;;;;;;;24.58;80.65;98858.53;5082645;28;20164;-79
2023/08/15 07:48:11;;;;;;;8.70;7.32;;;;;;;24.46;80.98;98856.28;5083029;28;20059;-78
2023/08/15 07:50:55;;;;;;;12.15;9.00;;;;;;;24.43;80.87;98871.06;5085422;28;20036;-78
2023/08/15 07:53:40;;;;;;;10.10;8.38;;;;;;;24.69;80.86;98868.03;5078868;28;21876;-78
2023/08/15 07:56:23;;;;;;;11.15;8.82;;;;;;;24.79;80.10;98867.09;5081370;28;20039;-81
2023/08/15 07:59:07;;;;;;;9.65;8.65;;;;;;;24.95;79.76;98875.69;5076311;28;20051;-81
2023/08/15 08:01:51;;;;;;;7.90;7.15;;;;;;;24.88;79.30;98884.09;5077983;28;20537;-83
2023/08/15 08:04:35;;;;;;;8.18;7.28;;;;;;;24.87;78.75;98890.56;5076296;28;20501;-79
2023/08/15 08:07:20;;;;;;;7.38;6.68;;;;;;;24.72;78.86;98888.09;5078402;28;20508;-78
2023/08/15 08:10:05;;;;;;;7.57;6.57;;;;;;;24.67;78.72;98897.03;5080318;28;20100;-79
2023/08/15 08:12:52;;;;;;;10.15;6.30;;;;;;;24.72;79.09;98904.19;5082606;28;20094;-80
2023/08/15 08:15:35;;;;;;;10.68;6.95;;;;;;;24.74;79.22;98905.50;5078470;28;20039;-80
2023/08/15 08:18:19;;;;;;;8.32;4.57;;;;;;;24.39;78.93;98913.78;5082248;28;20189;-80
2023/08/15 08:21:05;;;;;;;6.68;4.68;;;;;;;24.44;78.61;98904.06;5081292;28;20047;-79
2023/08/15 08:23:49;;;;;;;5.47;4.43;;;;;;;24.52;78.31;98900.72;5081618;28;20042;-79
2023/08/15 08:26:33;;;;;;;5.13;4.63;;;;;;;24.81;78.97;98897.13;5079264;28;20039;-80
2023/08/15 08:29:17;;;;;;;4.82;4.32;;;;;;;24.76;78.71;98899.84;5072506;28;20111;-79
2023/08/15 08:32:02;;;;;;;4.78;4.38;;;;;;;24.58;78.46;98910.31;5078557;28;20038;-79
2023/08/15 08:34:46;;;;;;;4.03;3.63;;;;;;;24.68;77.81;98915.50;5082900;28;20074;-79
2023/08/15 08:37:30;;;;;;;4.38;3.88;;;;;;;24.52;77.47;98906.09;5078366;28;20094;-79
2023/08/15 08:40:16;;;;;;;5.63;3.63;;;;;;;24.52;76.63;98909.59;5078795;28;20034;-79
2023/08/15 08:43:00;;;;;;;5.28;3.78;;;;;;;24.99;75.89;98908.09;5079612;28;20062;-80
2023/08/15 08:45:51;;;;;;;4.10;3.60;;;;;;;24.38;75.30;98909.50;5083014;28;20042;-80
2023/08/15 08:48:36;;;;;;;3.92;3.28;;;;;;;24.16;75.63;98909.25;5077104;28;20039;-79
2023/08/15 08:51:22;;;;;;;3.40;3.10;;;;;;;24.56;75.40;98907.09;5083075;28;20163;-80
2023/08/15 08:54:06;;;;;;;4.50;2.97;;;;;;;24.45;74.35;98900.31;5078766;28;20098;-79
2023/08/15 08:56:54;;;;;;;3.67;2.80;;;;;;;24.44;73.31;98899.50;5085710;28;20453;-79
2023/08/15 08:59:42;;;;;;;2.97;2.67;;;;;;;24.66;73.17;98911.50;5083398;28;20039;-80
2023/08/15 09:02:34;;;;;;;3.25;2.70;;;;;;;24.55;72.30;98918.91;5080319;28;20043;-80
2023/08/15 09:05:18;;;;;;;2.65;2.45;;;;;;;24.97;72.53;98921.03;5078860;28;20101;-80
2023/08/15 09:08:03;;;;;;;4.88;2.83;;;;;;;24.83;74.31;98924.47;5083670;28;20082;-80
2023/08/15 09:10:47;;;;;;;7.10;2.50;;;;;;;25.01;73.47;98922.03;5079685;28;20093;-80
2023/08/15 09:13:31;;;;;;;3.28;2.35;;;;;;;24.27;73.75;98929.50;5078233;28;20043;-80
2023/08/15 09:16:16;;;;;;;6.93;2.63;;;;;;;24.09;73.60;98931.88;5082343;28;20125;-79
2023/08/15 09:19:04;;;;;;;7.75;2.80;;;;;;;24.59;73.63;98938.75;5079113;28;20434;-80
2023/08/15 09:21:47;;;;;;;3.38;2.50;;;;;;;24.45;74.30;98937.84;5081541;28;20128;-79
2023/08/15 09:24:31;;;;;;;4.03;2.47;;;;;;;24.21;74.16;98938.72;5078739;28;20031;-80
2023/08/15 09:27:16;;;;;;;2.35;2.15;;;;;;;23.94;73.34;98942.75;5084428;28;20124;-80
2023/08/15 09:30:11;;;;;;;2.63;2.10;;;;;;;24.61;72.93;98951.84;5076411;28;20044;-80
2023/08/15 09:32:55;;;;;;;3.63;2.30;;;;;;;24.66;72.08;98944.53;5079991;28;20093;-80
2023/08/15 09:35:40;;;;;;;3.47;2.17;;;;;;;24.74;72.33;98945.75;5079277;28;20094;-80
2023/08/15 09:38:24;;;;;;;3.63;2.20;;;;;;;24.70;71.71;98943.94;5082058;28;20043;-80
2023/08/15 09:41:12;;;;;;;3.97;2.40;;;;;;;24.45;71.12;98952.06;5079352;28;20039;-79
2023/08/15 09:43:56;;;;;;;4.65;2.30;;;;;;;24.64;71.25;98945.91;5079698;28;20126;-81
2023/08/15 09:46:43;;;;;;;3.17;2.20;;;;;;;24.67;70.51;98959.53;5080827;28;20193;-79
2023/08/15 09:49:30;;;;;;;3.72;1.92;;;;;;;24.81;71.43;98954.25;5076803;28;20114;-79
2023/08/15 09:52:16;;;;;;;2.20;2.00;;;;;;;25.00;71.21;98952.66;5075772;28;20125;-79
2023/08/15 09:55:04;;;;;;;3.65;2.20;;;;;;;25.10;69.85;98952.47;5082632;28;20394;-80
2023/08/15 09:57:50;;;;;;;3.05;2.15;;;;;;;25.64;69.27;98962.88;5078113;28;20536;-80
2023/08/15 10:00:36;;;;;;;4.57;2.53;;;;;;;25.87;69.85;98952.25;5079948;28;20101;-79
2023/08/15 10:03:29;;;;;;;2.90;2.50;;;;;;;25.99;69.36;98955.25;5076299;28;20035;-80
2023/08/15 10:06:14;;;;;;;5.30;2.47;;;;;;;26.22;70.61;98949.97;5080454;28;20043;-79
2023/08/15 10:08:58;;;;;;;3.70;2.28;;;;;;;25.75;68.91;98958.94;5076336;28;20056;-80
2023/08/15 10:11:45;;;;;;;4.03;2.15;;;;;;;25.52;67.43;98958.78;5075676;28;20042;-79
2023/08/15 10:14:29;;;;;;;5.78;2.42;;;;;;;25.40;67.96;98950.38;5077547;28;20552;-79
2023/08/15 10:17:13;;;;;;;4.22;2.05;;;;;;;25.44;68.58;98970.19;5081916;28;20465;-79
2023/08/15 10:20:05;;;;;;;3.08;1.98;;;;;;;26.22;67.04;98952.66;5079613;28;20054;-80
2023/08/15 10:22:58;;;;;;;3.15;2.30;;;;;;;26.36;66.83;98958.00;5078775;28;20093;-80
2023/08/15 10:25:42;;;;;;;3.83;2.58;;;;;;;26.41;66.46;98962.50;5079375;28;20039;-80
2023/08/15 10:28:28;;;;;;;4.50;2.60;;;;;;;26.42;65.80;98961.41;5076469;28;20097;-81
2023/08/15 10:31:12;;;;;;;4.60;2.53;;;;;;;25.57;66.86;98971.34;5077517;28;20067;-80
2023/08/15 10:33:56;;;;;;;4.85;2.15;;;;;;;25.77;67.06;98954.06;5079500;28;20063;-79
2023/08/15 10:36:41;;;;;;;2.90;1.95;;;;;;;26.54;65.94;98964.38;5076027;28;20125;-79
2023/08/15 10:39:25;;;;;;;3.63;2.40;;;;;;;26.40;66.21;98967.06;5075674;28;20047;-79
2023/08/15 10:42:09;;;;;;;5.45;2.30;;;;;;;26.12;66.89;98968.97;5075647;28;20440;-80
2023/08/15 10:45:00;;;;;;;3.55;2.30;;;;;;;26.71;65.41;98962.91;5079526;28;20073;-79
2023/08/15 10:47:45;;;;;;;4.72;2.25;;;;;;;26.93;66.37;98960.28;5076930;28;20119;-80
2023/08/15 10:50:29;;;;;;;6.55;2.75;;;;;;;27.02;64.99;98973.00;5082309;28;20131;-80
2023/08/15 10:53:14;;;;;;;4.50;2.33;;;;;;;27.04;66.05;98984.25;5079376;28;20051;-80
2023/08/15 10:56:00;;;;;;;3.35;2.33;;;;;;;27.15;65.77;98979.41;5074750;28;20055;-80
2023/08/15 10:58:46;;;;;;;5.72;2.70;;;;;;;27.25;64.73;98976.50;5081142;28;20108;-80
2023/08/15 11:01:31;;;;;;;3.13;2.40;;;;;;;27.43;65.81;98977.38;5077535;28;20055;-80
2023/08/15 11:04:17;;;;;;;4.10;2.58;;;;;;;26.02;66.49;98986.91;5076172;28;20127;-77
2023/08/15 11:07:01;;;;;;;5.85;2.47;;;;;;;26.25;65.74;98988.94;5079352;28;20043;-80
2023/08/15 11:09:45;;;;;;;3.20;2.22;;;;;;;26.29;66.33;98989.91;5079071;28;20043;-80
2023/08/15 11:12:29;;;;;;;3.58;2.10;;;;;;;26.71;65.41;98981.75;5082381;28;20040;-80
2023/08/15 11:15:13;;;;;;;6.13;2.80;;;;;;;26.53;65.82;98995.06;5078328;28;20052;-80
2023/08/15 11:18:00;;;;;;;3.08;2.63;;;;;;;26.75;65.63;98986.22;5082420;28;20085;-80
2023/08/15 11:20:44;;;;;;;3.75;2.75;;;;;;;26.67;65.26;99001.19;5077029;28;20090;-80
2023/08/15 11:23:29;;;;;;;5.50;2.35;;;;;;;26.97;64.51;98997.38;5080771;28;20044;-80
2023/08/15 11:26:16;;;;;;;4.13;2.40;;;;;;;26.90;65.11;98995.09;5081655;28;20039;-80
2023/08/15 11:29:01;;;;;;;4.07;2.30;;;;;;;27.19;64.98;99005.44;5084176;28;20543;-80
2023/08/15 11:31:44;;;;;;;6.20;2.88;;;;;;;27.77;64.32;98992.16;5076425;28;20098;-80
2023/08/15 11:34:29;;;;;;;4.15;2.75;;;;;;;28.74;62.25;98999.72;5082184;28;20039;-79
2023/08/15 11:37:13;;;;;;;2.58;2.28;;;;;;;28.72;61.06;99007.34;5080108;28;20505;-80
2023/08/15 11:39:57;;;;;;;3.20;2.42;;;;;;;28.84;60.88;99012.94;5078392;28;20043;-80
2023/08/15 11:42:42;;;;;;;5.65;3.17;;;;;;;27.73;61.93;99023.56;5081678;28;20035;-82
2023/08/15 11:45:26;;;;;;;3.47;2.60;;;;;;;28.71;60.27;99016.56;5083923;28;20063;-82
2023/08/15 11:48:10;;;;;;;2.70;2.33;;;;;;;28.97;60.27;99015.78;5080362;28;20054;-82
2023/08/15 11:50:57;;;;;;;3.50;2.50;;;;;;;28.28;61.30;99026.16;5076527;28;20034;-82
2023/08/15 11:53:49;;;;;;;3.63;2.65;;;;;;;27.86;61.17;99031.84;5080992;28;20093;-82
2023/08/15 11:56:49;;;;;;;2.60;2.40;;;;;;;28.05;60.44;99034.31;5083431;28;20508;-83
2023/08/15 11:59:33;;;;;;;2.50;1.95;;;;;;;27.71;59.72;99039.25;5081652;28;20513;-82
2023/08/15 12:02:17;;;;;;;4.78;2.50;;;;;;;27.63;60.62;99034.59;5077953;28;20078;-82
2023/08/15 12:05:09;;;;;;;4.50;2.20;;;;;;;27.88;59.52;99035.84;5085777;28;20179;-82
2023/08/15 12:07:53;;;;;;;2.33;1.95;;;;;;;28.49;59.95;99031.75;5080943;28;20059;-82
2023/08/15 12:10:37;;;;;;;2.85;2.20;;;;;;;28.61;59.54;99029.25;5083723;28;20125;-82
2023/08/15 12:13:38;;;;;;;4.15;2.05;;;;;;;29.02;58.32;99032.66;5079414;28;20043;-82
2023/08/15 12:16:23;;;;;;;2.63;2.15;;;;;;;28.43;58.68;99022.22;5077297;28;20102;-82
2023/08/15 12:19:06;;;;;;;2.80;2.05;;;;;;;28.71;57.90;99033.53;5077950;28;20077;-81
2023/08/15 12:21:51;;;;;;;6.95;2.30;;;;;;;29.39;57.24;99031.50;5082412;28;20039;-82
2023/08/15 12:24:36;;;;;;;4.68;2.58;;;;;;;29.78;57.35;99035.09;5081426;28;20394;-81
2023/08/15 12:27:20;;;;;;;4.35;2.65;;;;;;;29.86;57.10;99030.72;5079651;28;20047;-82
2023/08/15 12:30:05;;;;;;;4.93;2.30;;;;;;;29.49;55.80;99034.69;5079736;28;20113;-82
2023/08/15 12:32:49;;;;;;;4.25;2.50;;;;;;;29.96;55.80;99027.69;5079362;28;20031;-82
2023/08/15 12:35:33;;;;;;;3.85;2.38;;;;;;;28.71;56.01;99040.88;5079725;28;20089;-82
2023/08/15 12:38:17;;;;;;;2.33;2.13;;;;;;;29.50;55.93;99035.47;5077668;28;20525;-82
2023/08/15 12:41:02;;;;;;;4.57;2.03;;;;;;;29.42;56.37;99042.47;5081687;28;20161;-82
2023/08/15 12:43:46;;;;;;;3.22;2.10;;;;;;;29.00;56.23;99055.69;5074171;28;20043;-81
2023/08/15 12:46:30;;;;;;;4.63;2.05;;;;;;;28.48;55.33;99043.66;5084485;28;20117;-81
2023/08/15 12:49:14;;;;;;;2.70;2.03;;;;;;;28.32;55.69;99041.44;5084048;28;20121;-81
2023/08/15 12:51:58;;;;;;;5.68;2.20;;;;;;;28.12;56.04;99033.88;5085841;28;20055;-81
2023/08/15 12:54:42;;;;;;;2.88;2.00;;;;;;;27.48;56.77;99038.44;5084309;28;20127;-81